createdAt,value
2023-04-04T00:01:35.099Z,99118.31
2023-04-04T00:04:06.348Z,99120.28
2023-04-04T00:06:37.728Z,99118.75
2023-04-04T00:09:08.762Z,99113.69
2023-04-04T00:11:38.208Z,99114.66
2023-04-04T00:14:09.233Z,99114.66
2023-04-04T00:16:38.819Z,99110.50
2023-04-04T00:19:09.558Z,99112.41
2023-04-04T00:21:41.394Z,99106.75
2023-04-04T00:24:12.825Z,99110.28
2023-04-04T00:26:41.764Z,99101.09
2023-04-04T00:29:11.871Z,99100.50
2023-04-04T00:31:41.494Z,99089.56
2023-04-04T00:34:11.630Z,99084.03
2023-04-04T00:36:43.662Z,99088.25
2023-04-04T00:39:14.258Z,99082.38
2023-04-04T00:41:43.173Z,99079.13
2023-04-04T00:44:13.756Z,99083.44
2023-04-04T00:46:43.343Z,99077.22
2023-04-04T00:49:13.083Z,99085.91
2023-04-04T00:51:44.949Z,99085.91
2023-04-04T00:54:15.079Z,99080.03
2023-04-04T00:56:44.360Z,99079.66
2023-04-04T00:59:14.036Z,99085.53
2023-04-04T01:01:43.633Z,99076.84
2023-04-04T01:04:14.308Z,99075.19
2023-04-04T01:06:46.475Z,99068.28
2023-04-04T01:09:15.250Z,99066.03
2023-04-04T01:11:45.834Z,99073.41
2023-04-04T01:14:15.448Z,99067.63
2023-04-04T01:16:45.818Z,99068.59
2023-04-04T01:19:26.035Z,99064.59
2023-04-04T01:22:00.677Z,99059.53
2023-04-04T01:24:35.360Z,99066.44
2023-04-04T01:27:07.322Z,99065.97
2023-04-04T01:29:36.860Z,99061.72
2023-04-04T01:32:14.985Z,99067.22
2023-04-04T01:35:03.808Z,99063.81
2023-04-04T01:37:42.129Z,99066.38
2023-04-04T01:40:20.127Z,99055.00
2023-04-04T01:42:52.279Z,99058.72
2023-04-04T01:45:24.317Z,99055.09
2023-04-04T01:47:54.230Z,99054.38
2023-04-04T01:50:24.165Z,99054.47
2023-04-04T01:52:54.296Z,99054.84
2023-04-04T01:55:24.912Z,99057.28
2023-04-04T01:57:55.235Z,99054.63
2023-04-04T02:00:25.305Z,99050.28
2023-04-04T02:02:55.796Z,99052.84
2023-04-04T02:05:24.822Z,99053.56
2023-04-04T02:07:55.422Z,99053.56
2023-04-04T02:10:25.383Z,99049.78
2023-04-04T02:12:58.098Z,99050.91
2023-04-04T02:15:28.263Z,99059.72
2023-04-04T02:18:01.797Z,99062.38
2023-04-04T02:20:32.223Z,99050.22
2023-04-04T02:23:01.456Z,99054.31
2023-04-04T02:25:31.478Z,99055.97
2023-04-04T02:28:03.342Z,99066.41
2023-04-04T02:30:33.772Z,99069.09
2023-04-04T02:33:03.794Z,99066.75
2023-04-04T02:35:33.263Z,99061.81
2023-04-04T02:38:03.280Z,99063.88
2023-04-04T02:40:33.355Z,99071.72
2023-04-04T02:43:05.292Z,99064.19
2023-04-04T02:45:36.337Z,99060.78
2023-04-04T02:48:08.153Z,99067.13
2023-04-04T02:50:37.674Z,99067.53
2023-04-04T02:53:07.707Z,99066.81
2023-04-04T02:55:37.233Z,99065.91
2023-04-04T02:58:08.232Z,99062.28
2023-04-04T03:00:38.498Z,99058.88
2023-04-04T03:03:07.886Z,99057.44
2023-04-04T03:05:37.979Z,99060.44
2023-04-04T03:08:07.613Z,99051.19
2023-04-04T03:10:36.766Z,99063.03
2023-04-04T03:13:07.833Z,99059.00
2023-04-04T03:15:38.471Z,99053.97
2023-04-04T03:18:08.941Z,99050.06
2023-04-04T03:20:39.077Z,99058.94
2023-04-04T03:23:09.708Z,99051.41
2023-04-04T03:25:40.038Z,99054.72
2023-04-04T03:28:13.674Z,99050.72
2023-04-04T03:30:48.271Z,99046.78
2023-04-04T03:33:18.444Z,99043.50
2023-04-04T03:35:48.381Z,99044.63
2023-04-04T03:38:18.318Z,99042.88
2023-04-04T03:40:47.093Z,99041.44
2023-04-04T03:43:17.402Z,99033.84
2023-04-04T03:45:48.827Z,99034.97
2023-04-04T03:48:18.361Z,99038.47
2023-04-04T03:50:48.341Z,99030.34
2023-04-04T03:53:18.729Z,99035.72
2023-04-04T03:55:48.405Z,99033.84
2023-04-04T03:58:19.765Z,99029.50
2023-04-04T04:00:49.434Z,99035.72
2023-04-04T04:03:20.548Z,99034.69
2023-04-04T04:05:51.400Z,99021.06
2023-04-04T04:08:22.496Z,99031.50
2023-04-04T04:10:53.211Z,99038.19
2023-04-04T04:13:24.480Z,99028.41
2023-04-04T04:15:55.833Z,99034.69
2023-04-04T04:18:25.218Z,99034.69
2023-04-04T04:21:02.465Z,99031.38
2023-04-04T04:23:32.170Z,99032.41
2023-04-04T04:26:01.070Z,99021.28
2023-04-04T04:28:33.655Z,99028.09
2023-04-04T04:31:08.116Z,99027.25
2023-04-04T04:33:39.423Z,99030.66
2023-04-04T04:36:09.986Z,99024.78
2023-04-04T04:38:40.001Z,99023.97
2023-04-04T04:41:10.130Z,99033.47
2023-04-04T04:43:41.778Z,99030.66
2023-04-04T04:46:11.117Z,99032.50
2023-04-04T04:48:41.042Z,99039.63
2023-04-04T04:51:11.120Z,99028.91
2023-04-04T04:53:41.240Z,99029.94
2023-04-04T04:56:12.272Z,99030.97
2023-04-04T04:58:43.226Z,99038.91
2023-04-04T05:01:12.720Z,99047.47
2023-04-04T05:03:42.645Z,99039.63
2023-04-04T05:06:13.078Z,99036.44
2023-04-04T05:08:43.126Z,99038.69
2023-04-04T05:11:13.580Z,99031.78
2023-04-04T05:13:46.322Z,99034.38
2023-04-04T05:16:16.901Z,99033.53
2023-04-04T05:18:47.313Z,99030.97
2023-04-04T05:21:17.702Z,99036.84
2023-04-04T05:23:49.106Z,99034.47
2023-04-04T05:26:18.965Z,99027.59
2023-04-04T05:28:50.227Z,99042.63
2023-04-04T05:31:22.244Z,99032.81
2023-04-04T05:33:51.217Z,99045.91
2023-04-04T05:36:20.586Z,99048.47
2023-04-04T05:38:51.101Z,99042.31
2023-04-04T05:41:20.516Z,99042.19
2023-04-04T05:43:51.519Z,99046.44
2023-04-04T05:46:21.526Z,99042.72
2023-04-04T05:48:52.051Z,99030.56
2023-04-04T05:51:22.136Z,99035.50
2023-04-04T05:53:51.982Z,99036.41
2023-04-04T05:56:21.960Z,99031.47
2023-04-04T05:58:52.703Z,99028.09
2023-04-04T06:01:23.697Z,99037.38
2023-04-04T06:03:54.088Z,99031.28
2023-04-04T06:06:24.308Z,99034.59
2023-04-04T06:08:54.236Z,99036.03
2023-04-04T06:14:09.645Z,99042.50
2023-04-04T06:16:39.262Z,99040.84
2023-04-04T06:19:09.529Z,99043.34
2023-04-04T06:21:39.827Z,99041.47
2023-04-04T06:24:11.334Z,99047.16
2023-04-04T06:26:41.838Z,99045.50
2023-04-04T06:29:13.353Z,99054.88
2023-04-04T06:31:45.774Z,99054.66
2023-04-04T06:34:15.463Z,99050.63
2023-04-04T06:36:45.004Z,99058.91
2023-04-04T06:39:14.636Z,99057.16
2023-04-04T06:41:44.773Z,99052.22
2023-04-04T06:44:17.436Z,99061.03
2023-04-04T06:46:49.113Z,99064.31
2023-04-04T06:49:22.164Z,99071.13
2023-04-04T06:51:53.173Z,99069.09
2023-04-04T06:54:23.568Z,99061.44
2023-04-04T06:56:53.651Z,99067.22
2023-04-04T06:59:25.114Z,99063.72
2023-04-04T07:01:56.101Z,99061.84
2023-04-04T07:04:26.582Z,99060.84
2023-04-04T07:06:56.644Z,99057.44
2023-04-04T07:09:29.536Z,99050.19
2023-04-04T07:12:00.828Z,99049.25
2023-04-04T07:14:31.217Z,99055.03
2023-04-04T07:19:30.786Z,99062.94
2023-04-04T07:21:59.760Z,99058.22
2023-04-04T07:24:30.126Z,99055.22
2023-04-04T07:26:59.480Z,99055.72
2023-04-04T07:29:29.559Z,99063.25
2023-04-04T07:32:01.317Z,99058.78
2023-04-04T07:34:31.837Z,99061.97
2023-04-04T07:37:01.789Z,99065.91
2023-04-04T07:39:31.385Z,99064.72
2023-04-04T07:42:01.435Z,99055.84
2023-04-04T07:44:31.886Z,99054.63
2023-04-04T07:47:09.802Z,99053.47
2023-04-04T07:49:41.802Z,99063.78
2023-04-04T07:52:12.949Z,99066.16
2023-04-04T07:54:41.533Z,99056.75
2023-04-04T07:57:11.688Z,99054.78
2023-04-04T07:59:41.798Z,99063.72
2023-04-04T08:02:13.740Z,99062.91
2023-04-04T08:04:43.612Z,99056.47
2023-04-04T08:07:14.203Z,99056.25
2023-04-04T08:09:44.283Z,99060.06
2023-04-04T08:12:14.184Z,99056.41
2023-04-04T08:14:44.086Z,99049.38
2023-04-04T08:17:19.568Z,99039.44
2023-04-04T08:19:50.060Z,99052.00
2023-04-04T08:22:20.129Z,99049.44
2023-04-04T08:24:50.265Z,99045.78
2023-04-04T08:27:20.526Z,99044.75
2023-04-04T08:29:49.903Z,99043.72
2023-04-04T08:32:21.218Z,99047.50
2023-04-04T08:34:52.271Z,99047.03
2023-04-04T08:37:22.955Z,99054.53
2023-04-04T08:39:53.374Z,99051.72
2023-04-04T08:42:24.793Z,99056.91
2023-04-04T08:44:59.083Z,99048.91
2023-04-04T08:47:33.036Z,99053.41
2023-04-04T08:50:05.629Z,99046.72
2023-04-04T08:52:36.385Z,99044.16
2023-04-04T08:55:08.190Z,99045.56
2023-04-04T08:57:38.465Z,99049.81
2023-04-04T09:00:11.473Z,99043.56
2023-04-04T09:02:59.254Z,99037.00
2023-04-04T09:05:29.923Z,99045.69
2023-04-04T09:08:00.165Z,99052.06
2023-04-04T09:10:29.859Z,99055.94
2023-04-04T09:13:12.412Z,99050.53
2023-04-04T09:15:50.111Z,99050.31
2023-04-04T09:18:22.115Z,99048.06
2023-04-04T09:20:52.757Z,99042.66
2023-04-04T09:23:24.454Z,99048.66
2023-04-04T09:26:03.865Z,99042.56
2023-04-04T09:28:35.129Z,99041.47
2023-04-04T09:31:10.007Z,99049.00
2023-04-04T09:33:41.731Z,99043.59
2023-04-04T09:36:17.145Z,99048.41
2023-04-04T09:38:49.401Z,99057.44
2023-04-04T09:41:20.949Z,99055.34
2023-04-04T09:43:51.248Z,99050.84
2023-04-04T09:46:22.531Z,99053.19
2023-04-04T09:48:53.076Z,99048.28
2023-04-04T09:51:22.033Z,99060.75
2023-04-04T09:53:52.630Z,99058.38
2023-04-04T09:56:23.075Z,99056.25
2023-04-04T09:59:03.138Z,99049.78
2023-04-04T10:01:34.080Z,99047.66
2023-04-04T10:04:06.974Z,99039.75
2023-04-04T10:06:38.561Z,99042.41
2023-04-04T10:09:10.668Z,99041.81
2023-04-04T10:11:40.623Z,99037.22
2023-04-04T10:14:12.361Z,99043.81
2023-04-04T10:16:47.556Z,99037.81
2023-04-04T10:19:19.668Z,99030.03
2023-04-04T10:21:49.834Z,99025.13
2023-04-04T10:24:19.736Z,99027.81
2023-04-04T10:26:49.010Z,99020.22
2023-04-04T10:29:19.409Z,99020.81
2023-04-04T10:31:55.644Z,99017.59
2023-04-04T10:34:38.817Z,99016.25
2023-04-04T10:37:14.303Z,99017.41
2023-04-04T10:39:53.917Z,99028.00
2023-04-04T10:42:26.432Z,99012.47
2023-04-04T10:45:09.165Z,99004.44
2023-04-04T10:47:47.845Z,99010.47
2023-04-04T10:50:18.125Z,99007.03
2023-04-04T10:52:48.652Z,99015.59
2023-04-04T10:55:18.765Z,99018.19
2023-04-04T10:57:55.727Z,99017.59
2023-04-04T11:00:26.251Z,98999.94
2023-04-04T11:03:00.097Z,98996.09
2023-04-04T11:05:34.697Z,99005.84
2023-04-04T11:08:08.746Z,98991.13
2023-04-04T11:10:39.971Z,98985.69
2023-04-04T11:13:15.062Z,98988.84
2023-04-04T11:15:58.742Z,98995.03
2023-04-04T11:19:00.944Z,98992.59
2023-04-04T11:21:34.901Z,98990.44
2023-04-04T11:24:19.343Z,98989.25
2023-04-04T11:26:48.764Z,99003.16
2023-04-04T11:29:53.949Z,99003.25
2023-04-04T11:32:50.014Z,98995.38
2023-04-04T11:35:26.539Z,98984.63
2023-04-04T11:38:05.039Z,98984.91
2023-04-04T11:40:41.857Z,98985.31
2023-04-04T11:43:14.369Z,98993.53
2023-04-04T11:45:47.542Z,98984.00
2023-04-04T11:48:20.716Z,98978.81
2023-04-04T11:50:51.960Z,98986.06
2023-04-04T11:53:23.529Z,98979.78
2023-04-04T11:55:53.053Z,98977.19
2023-04-04T11:58:22.147Z,98967.78
2023-04-04T12:00:50.936Z,98972.84
2023-04-04T12:03:20.588Z,98967.53
2023-04-04T12:05:51.662Z,98967.97
2023-04-04T12:08:23.990Z,98958.00
2023-04-04T12:10:54.588Z,98958.97
2023-04-04T12:13:32.332Z,98957.06
2023-04-04T12:16:02.461Z,98953.53
2023-04-04T12:18:32.059Z,98945.34
2023-04-04T12:21:01.284Z,98943.72
2023-04-04T12:23:36.354Z,98945.47
2023-04-04T12:26:06.652Z,98940.16
2023-04-04T12:28:36.224Z,98947.00
2023-04-04T12:31:07.322Z,98940.97
2023-04-04T12:33:38.119Z,98930.19
2023-04-04T12:36:09.014Z,98930.19
2023-04-04T12:38:59.857Z,98918.41
2023-04-04T12:41:28.916Z,98910.34
2023-04-04T12:44:06.067Z,98914.84
2023-04-04T12:46:40.517Z,98909.78
2023-04-04T12:49:13.163Z,98918.50
2023-04-04T12:51:42.895Z,98906.75
2023-04-04T12:54:29.592Z,98909.06
2023-04-04T12:57:00.942Z,98903.88
2023-04-04T12:59:31.944Z,98906.19
2023-04-04T13:02:03.926Z,98900.69
2023-04-04T13:04:34.757Z,98904.94
2023-04-04T13:07:05.079Z,98896.84
2023-04-04T13:09:37.054Z,98894.13
2023-04-04T13:12:10.454Z,98892.63
2023-04-04T13:15:01.843Z,98889.88
2023-04-04T13:17:45.408Z,98883.56
2023-04-04T13:20:16.868Z,98873.28
2023-04-04T13:22:46.100Z,98881.88
2023-04-04T13:25:16.808Z,98887.16
2023-04-04T13:27:46.969Z,98876.63
2023-04-04T13:30:16.299Z,98870.47
2023-04-04T13:32:45.888Z,98867.41
2023-04-04T13:35:16.356Z,98867.13
2023-04-04T13:37:45.432Z,98862.44
2023-04-04T13:40:16.107Z,98856.69
2023-04-04T13:42:46.455Z,98859.50
2023-04-04T13:45:17.851Z,98859.44
2023-04-04T13:47:48.630Z,98857.91
2023-04-04T13:50:18.210Z,98854.41
2023-04-04T13:52:48.794Z,98841.53
2023-04-04T13:55:19.012Z,98841.13
2023-04-04T13:57:48.520Z,98841.00
2023-04-04T14:00:19.208Z,98838.50
2023-04-04T14:02:53.030Z,98842.75
2023-04-04T14:05:24.629Z,98837.19
2023-04-04T14:07:54.059Z,98836.38
2023-04-04T14:10:24.267Z,98832.63
2023-04-04T14:12:54.734Z,98821.00
2023-04-04T14:15:24.347Z,98821.50
2023-04-04T14:17:54.363Z,98835.53
2023-04-04T14:20:24.414Z,98835.50
2023-04-04T14:22:54.394Z,98830.13
2023-04-04T14:25:26.277Z,98823.44
2023-04-04T14:27:56.649Z,98817.56
2023-04-04T14:30:27.313Z,98814.94
2023-04-04T14:32:57.294Z,98815.63
2023-04-04T14:35:27.621Z,98816.91
2023-04-04T14:37:57.206Z,98816.75
2023-04-04T14:40:30.040Z,98808.75
2023-04-04T14:42:59.531Z,98806.47
2023-04-04T14:45:28.676Z,98798.31
2023-04-04T14:47:59.360Z,98795.06
2023-04-04T14:50:29.961Z,98791.94
2023-04-04T14:52:59.356Z,98790.66
2023-04-04T14:55:30.936Z,98788.88
2023-04-04T14:58:02.958Z,98787.56
2023-04-04T15:00:32.063Z,98783.63
2023-04-04T15:03:01.073Z,98779.72
2023-04-04T15:05:36.002Z,98783.81
2023-04-04T15:08:06.491Z,98776.44
2023-04-04T15:10:36.697Z,98777.75
2023-04-04T15:13:06.943Z,98779.72
2023-04-04T15:15:35.554Z,98787.53
2023-04-04T15:18:05.990Z,98782.00
2023-04-04T15:20:39.900Z,98777.91
2023-04-04T15:23:11.683Z,98774.81
2023-04-04T15:25:42.900Z,98786.41
2023-04-04T15:28:11.980Z,98790.00
2023-04-04T15:30:42.171Z,98782.31
2023-04-04T15:33:13.595Z,98773.19
2023-04-04T15:35:42.552Z,98780.38
2023-04-04T15:38:13.607Z,98780.88
2023-04-04T15:40:44.965Z,98772.53
2023-04-04T15:43:13.957Z,98776.47
2023-04-04T15:45:43.692Z,98773.03
2023-04-04T15:48:14.022Z,98773.03
2023-04-04T15:50:44.049Z,98766.34
2023-04-04T15:53:13.904Z,98771.72
2023-04-04T15:55:46.259Z,98761.41
2023-04-04T15:58:15.610Z,98760.13
2023-04-04T16:00:49.260Z,98763.69
2023-04-04T16:03:18.903Z,98769.59
2023-04-04T16:05:47.764Z,98762.72
2023-04-04T16:08:18.261Z,98759.47
2023-04-04T16:10:49.090Z,98747.09
2023-04-04T16:13:18.631Z,98755.88
2023-04-04T16:15:48.639Z,98756.56
2023-04-04T16:18:18.306Z,98766.66
2023-04-04T16:20:47.715Z,98766.66
2023-04-04T16:23:16.304Z,98770.59
2023-04-04T16:25:45.437Z,98765.69
2023-04-04T16:28:16.790Z,98764.41
2023-04-04T16:30:45.445Z,98760.28
2023-04-04T16:33:15.061Z,98756.88
2023-04-04T16:35:45.110Z,98754.59
2023-04-04T16:38:14.124Z,98748.88
2023-04-04T16:40:43.712Z,98748.06
2023-04-04T16:43:12.831Z,98744.47
2023-04-04T16:45:45.549Z,98753.59
2023-04-04T16:48:15.101Z,98756.53
2023-04-04T16:50:44.783Z,98744.94
2023-04-04T16:53:13.736Z,98742.81
2023-04-04T16:55:43.312Z,98752.91
2023-04-04T16:58:13.271Z,98745.41
2023-04-04T17:00:45.296Z,98745.38
2023-04-04T17:03:15.545Z,98746.38
2023-04-04T17:05:44.626Z,98744.09
2023-04-04T17:08:13.575Z,98744.69
2023-04-04T17:10:43.688Z,98743.72
2023-04-04T17:13:13.650Z,98744.38
2023-04-04T17:15:45.062Z,98742.41
2023-04-04T17:18:14.617Z,98748.22
2023-04-04T17:20:44.640Z,98749.53
2023-04-04T17:23:14.818Z,98740.53
2023-04-04T17:25:44.308Z,98740.22
2023-04-04T17:28:14.237Z,98745.56
2023-04-04T17:30:44.618Z,98748.50
2023-04-04T17:33:14.908Z,98751.56
2023-04-04T17:35:44.393Z,98753.84
2023-04-04T17:38:14.964Z,98751.03
2023-04-04T17:40:43.984Z,98748.06
2023-04-04T17:43:13.461Z,98748.50
2023-04-04T17:45:46.653Z,98749.75
2023-04-04T17:48:17.268Z,98757.06
2023-04-04T17:50:48.400Z,98747.97
2023-04-04T17:53:18.680Z,98761.44
2023-04-04T17:55:48.521Z,98754.25
2023-04-04T17:58:18.097Z,98753.06
2023-04-04T18:00:48.398Z,98754.63
2023-04-04T18:03:20.009Z,98747.13
2023-04-04T18:05:49.687Z,98752.94
2023-04-04T18:08:19.311Z,98761.69
2023-04-04T18:10:48.446Z,98760.44
2023-04-04T18:13:17.603Z,98759.53
2023-04-04T18:15:50.893Z,98764.84
2023-04-04T18:18:21.844Z,98766.81
2023-04-04T18:20:52.029Z,98766.09
2023-04-04T18:23:21.761Z,98768.88
2023-04-04T18:25:51.889Z,98770.13
2023-04-04T18:28:21.544Z,98769.34
2023-04-04T18:30:53.086Z,98773.72
2023-04-04T18:33:21.669Z,98773.69
2023-04-04T18:35:51.772Z,98775.38
2023-04-04T18:38:21.229Z,98777.19
2023-04-04T18:40:50.807Z,98775.06
2023-04-04T18:43:19.790Z,98773.88
2023-04-04T18:45:48.350Z,98779.50
2023-04-04T18:48:19.684Z,98776.38
2023-04-04T18:50:49.146Z,98782.97
2023-04-04T18:53:18.640Z,98784.31
2023-04-04T18:55:49.891Z,98790.38
2023-04-04T18:58:20.918Z,98788.47
2023-04-04T19:00:53.145Z,98788.47
2023-04-04T19:03:23.512Z,98792.19
2023-04-04T19:05:55.430Z,98794.53
2023-04-04T19:08:26.242Z,98794.81
2023-04-04T19:10:56.647Z,98798.91
2023-04-04T19:13:26.020Z,98798.09
2023-04-04T19:15:56.521Z,98803.00
2023-04-04T19:18:27.564Z,98797.25
2023-04-04T19:20:57.337Z,98800.94
2023-04-04T19:23:27.787Z,98796.03
2023-04-04T19:25:57.455Z,98806.00
2023-04-04T19:28:27.532Z,98794.25
2023-04-04T19:30:57.648Z,98800.81
2023-04-04T19:33:28.184Z,98796.03
2023-04-04T19:36:01.476Z,98791.13
2023-04-04T19:38:33.832Z,98799.31
2023-04-04T19:41:05.064Z,98796.19
2023-04-04T19:43:34.973Z,98800.53
2023-04-04T19:46:11.159Z,98795.19
2023-04-04T19:48:46.173Z,98799.00
2023-04-04T19:51:41.135Z,98802.41
2023-04-04T19:54:16.019Z,98800.03
2023-04-04T19:56:48.429Z,98800.19
2023-04-04T20:00:05.045Z,98807.28
2023-04-04T20:02:57.854Z,98805.34
2023-04-04T20:06:08.124Z,98807.22
2023-04-04T20:08:44.622Z,98812.22
2023-04-04T20:11:14.996Z,98818.38
2023-04-04T20:13:45.436Z,98804.44
2023-04-04T20:16:16.725Z,98811.22
2023-04-04T20:18:48.238Z,98809.84
2023-04-04T20:21:21.333Z,98801.88
2023-04-04T20:23:54.304Z,98807.69
2023-04-04T20:26:52.823Z,98800.34
2023-04-04T20:29:26.105Z,98795.78
2023-04-04T20:31:58.786Z,98802.16
2023-04-04T20:34:42.898Z,98799.00
2023-04-04T20:37:20.431Z,98805.53
2023-04-04T20:39:53.611Z,98809.09
2023-04-04T20:42:41.384Z,98804.19
2023-04-04T20:49:11.493Z,98805.44
2023-04-04T20:51:42.527Z,98812.78
2023-04-04T20:54:12.465Z,98813.50
2023-04-04T20:56:55.544Z,98815.66
2023-04-04T20:59:40.644Z,98810.84
2023-04-04T21:02:13.487Z,98817.94
2023-04-04T21:04:45.607Z,98803.94
2023-04-04T21:07:46.465Z,98818.03
2023-04-04T21:10:45.952Z,98828.06
2023-04-04T21:13:14.634Z,98820.09
2023-04-04T21:15:43.599Z,98820.34
2023-04-04T21:18:14.135Z,98825.25
2023-04-04T21:21:12.731Z,98817.66
2023-04-04T21:23:54.195Z,98823.66
2023-04-04T21:26:34.435Z,98824.38
2023-04-04T21:29:06.302Z,98826.84
2023-04-04T21:31:41.043Z,98817.69
2023-04-04T21:34:16.641Z,98819.13
2023-04-04T21:36:47.387Z,98825.09
2023-04-04T21:39:23.828Z,98818.69
2023-04-04T21:41:58.537Z,98824.19
2023-04-04T21:44:28.769Z,98821.72
2023-04-04T21:46:59.138Z,98821.38
2023-04-04T21:49:29.455Z,98827.03
2023-04-04T21:51:58.769Z,98824.47
2023-04-04T21:54:27.867Z,98823.66
2023-04-04T21:56:59.686Z,98819.19
2023-04-04T21:59:29.165Z,98822.63
2023-04-04T22:01:58.636Z,98833.88
2023-04-04T22:04:27.620Z,98828.00
2023-04-04T22:06:58.372Z,98824.72
2023-04-04T22:09:30.342Z,98827.06
2023-04-04T22:12:03.676Z,98825.91
2023-04-04T22:14:34.197Z,98821.91
2023-04-04T22:17:03.768Z,98829.66
2023-04-04T22:19:43.912Z,98831.31
2023-04-04T22:22:13.679Z,98823.56
2023-04-04T22:24:44.850Z,98820.28
2023-04-04T22:27:16.413Z,98821.44
2023-04-04T22:29:47.310Z,98813.13
2023-04-04T22:32:16.881Z,98817.31
2023-04-04T22:34:46.962Z,98819.06
2023-04-04T22:37:20.021Z,98810.88
2023-04-04T22:39:50.530Z,98807.72
2023-04-04T22:42:21.509Z,98803.38
2023-04-04T22:44:52.117Z,98821.44
2023-04-04T22:47:21.729Z,98810.31
2023-04-04T22:49:51.560Z,98808.31
2023-04-04T22:52:23.368Z,98806.78
2023-04-04T22:54:53.535Z,98808.06
2023-04-04T22:57:24.306Z,98801.28
2023-04-04T22:59:54.278Z,98807.28
2023-04-04T23:02:23.634Z,98810.19
2023-04-04T23:04:52.640Z,98801.72
2023-04-04T23:07:22.589Z,98804.22
2023-04-04T23:09:53.473Z,98796.13
2023-04-04T23:12:25.204Z,98799.16
2023-04-04T23:14:54.601Z,98796.47
2023-04-04T23:17:24.036Z,98789.56
2023-04-04T23:19:55.332Z,98792.25
2023-04-04T23:22:25.156Z,98783.47
2023-04-04T23:24:55.311Z,98787.22
2023-04-04T23:27:26.606Z,98783.66
2023-04-04T23:29:58.279Z,98787.22
2023-04-04T23:32:28.986Z,98776.66
2023-04-04T23:34:59.057Z,98774.75
2023-04-04T23:37:28.507Z,98773.72
2023-04-04T23:39:59.124Z,98770.06
2023-04-04T23:42:31.294Z,98775.56
2023-04-04T23:45:02.816Z,98773.25
2023-04-04T23:47:32.128Z,98775.38
2023-04-04T23:50:01.642Z,98767.28
2023-04-04T23:52:32.500Z,98780.38
2023-04-04T23:55:02.040Z,98773.22
2023-04-04T23:57:33.532Z,98772.91
